Time;durP1;ratioP1;P1;durP2;ratioP2;P2;SDS_P1;SDS_P2;PMS_P1;PMS_P2;Temp;Humidity;BMP_temperature;BMP_pressure;BME280_temperature;BME280_humidity;BME280_pressure;Samples;Min_cycle;Max_cycle;Signal;HPM_P1;HPM_P2
2023/04/09 00:01:41;;;;;;;;;23.00;22.33;;;;;;;;117960;1177;24727;-64
2023/04/09 00:04:09;;;;;;;;;27.00;21.00;;;;;;;;117993;1176;25033;-64
2023/04/09 00:06:38;;;;;;;;;22.00;20.00;;;;;;;;118182;1178;25306;-64
2023/04/09 00:09:06;;;;;;;;;29.50;22.00;;;;;;;;118199;1177;24763;-64
2023/04/09 00:11:35;;;;;;;;;23.33;19.00;;;;;;;;118195;1178;24909;-64
2023/04/09 00:14:03;;;;;;;;;25.50;24.50;;;;;;;;117990;1180;24989;-64
2023/04/09 00:16:32;;;;;;;;;23.33;21.00;;;;;;;;118195;1189;25619;-65
2023/04/09 00:19:00;;;;;;;;;22.33;16.67;;;;;;;;117909;1181;24894;-64
2023/04/09 00:21:29;;;;;;;;;19.00;19.00;;;;;;;;117812;1188;25127;-64
2023/04/09 00:23:57;;;;;;;;;25.67;22.33;;;;;;;;117973;1189;25012;-64
2023/04/09 00:26:26;;;;;;;;;29.00;22.00;;;;;;;;117966;1180;25493;-66
2023/04/09 00:28:54;;;;;;;;;21.00;19.50;;;;;;;;117814;1177;25542;-66
2023/04/09 00:31:23;;;;;;;;;19.00;19.00;;;;;;;;117876;1183;24870;-70
2023/04/09 00:33:51;;;;;;;;;24.00;22.00;;;;;;;;117820;1180;25293;-65
2023/04/09 00:36:20;;;;;;;;;23.33;19.33;;;;;;;;117895;1178;25700;-70
2023/04/09 00:38:49;;;;;;;;;25.33;25.33;;;;;;;;118039;1177;25542;-66
2023/04/09 00:41:19;;;;;;;;;28.33;24.00;;;;;;;;118038;1189;25415;-64
2023/04/09 00:43:48;;;;;;;;;19.67;18.33;;;;;;;;118204;1189;24725;-65
2023/04/09 00:46:17;;;;;;;;;25.33;22.00;;;;;;;;118173;1184;25681;-65
2023/04/09 00:48:45;;;;;;;;;22.25;21.00;;;;;;;;118116;1177;24754;-64
2023/04/09 00:51:14;;;;;;;;;30.33;21.33;;;;;;;;118094;1190;25652;-65
2023/04/09 00:53:42;;;;;;;;;21.67;20.33;;;;;;;;117928;1177;24753;-65
2023/04/09 00:56:12;;;;;;;;;24.00;22.33;;;;;;;;118010;1177;24903;-65
2023/04/09 00:58:40;;;;;;;;;23.00;14.00;;;;;;;;118140;1189;25401;-64
2023/04/09 01:01:09;;;;;;;;;26.33;23.33;;;;;;;;118185;1177;25327;-65
2023/04/09 01:03:38;;;;;;;;;26.75;23.50;;;;;;;;118173;1177;24764;-66
2023/04/09 01:06:31;;;;;;;;;22.50;22.00;;;;;;;;118168;1177;24882;-65
2023/04/09 01:09:14;;;;;;;;;23.00;19.33;;;;;;;;118045;1183;24755;-66
2023/04/09 01:11:56;;;;;;;;;24.33;21.00;;;;;;;;118080;1177;24924;-63
2023/04/09 01:14:39;;;;;;;;;22.00;21.33;;;;;;;;118150;1178;24811;-64
2023/04/09 01:17:34;;;;;;;;;24.00;19.00;;;;;;;;118153;1189;25435;-64
2023/04/09 01:20:08;;;;;;;;;20.50;20.00;;;;;;;;117761;1177;25141;-64
2023/04/09 01:23:06;;;;;;;;;25.00;23.50;;;;;;;;118125;1176;24988;-65
2023/04/09 01:25:59;;;;;;;;;23.00;21.00;;;;;;;;118002;1180;24731;-64
2023/04/09 01:28:34;;;;;;;;;26.75;22.50;;;;;;;;118193;1187;25483;-65
2023/04/09 01:31:07;;;;;;;;;28.00;23.50;;;;;;;;118097;1182;25123;-65
2023/04/09 01:33:36;;;;;;;;;22.00;17.00;;;;;;;;118023;1177;25175;-65
2023/04/09 01:36:06;;;;;;;;;21.00;19.50;;;;;;;;118166;1182;25342;-65
2023/04/09 01:38:35;;;;;;;;;13.00;13.00;;;;;;;;118118;1176;24736;-64
2023/04/09 01:41:05;;;;;;;;;24.50;20.00;;;;;;;;118050;1189;25522;-65
2023/04/09 01:43:33;;;;;;;;;22.00;17.33;;;;;;;;117953;1177;25531;-64
2023/04/09 01:46:02;;;;;;;;;18.67;14.00;;;;;;;;118057;1179;25682;-65
2023/04/09 01:48:32;;;;;;;;;24.50;20.50;;;;;;;;118076;1178;24903;-64
2023/04/09 01:51:01;;;;;;;;;23.00;20.50;;;;;;;;118062;1177;24836;-65
2023/04/09 01:53:30;;;;;;;;;23.50;21.00;;;;;;;;118138;1177;24989;-64
2023/04/09 01:56:00;;;;;;;;;25.50;20.50;;;;;;;;118149;1185;25263;-64
2023/04/09 01:58:28;;;;;;;;;24.00;20.00;;;;;;;;120194;1189;25454;-65
2023/04/09 02:01:11;;;;;;;;;26.00;22.50;;;;;;;;120092;1187;24962;-65
2023/04/09 02:03:50;;;;;;;;;23.00;20.00;;;;;;;;119870;1189;25456;-66
2023/04/09 02:06:39;;;;;;;;;22.00;21.67;;;;;;;;120097;1189;24915;-65
2023/04/09 02:09:08;;;;;;;;;21.50;19.50;;;;;;;;120192;1189;25072;-65
2023/04/09 02:11:39;;;;;;;;;24.67;21.00;;;;;;;;119957;1190;24710;-65
2023/04/09 02:14:09;;;;;;;;;19.50;16.00;;;;;;;;119879;1184;25002;-65
2023/04/09 02:16:39;;;;;;;;;21.00;17.33;;;;;;;;120008;1182;25346;-66
2023/04/09 02:19:07;;;;;;;;;24.00;19.33;;;;;;;;119944;1190;25513;-65
2023/04/09 02:21:35;;;;;;;;;23.33;19.67;;;;;;;;119958;1189;25491;-65
2023/04/09 02:24:04;;;;;;;;;23.00;18.00;;;;;;;;120218;1177;24706;-65
2023/04/09 02:26:32;;;;;;;;;23.25;18.50;;;;;;;;120105;1189;24871;-65
2023/04/09 02:29:00;;;;;;;;;18.75;15.50;;;;;;;;119944;1187;24970;-65
2023/04/09 02:31:28;;;;;;;;;24.00;22.33;;;;;;;;120168;1189;24864;-66
2023/04/09 02:33:57;;;;;;;;;24.33;19.33;;;;;;;;120040;1189;25668;-65
2023/04/09 02:36:26;;;;;;;;;24.25;19.00;;;;;;;;120099;1180;25250;-65
2023/04/09 02:38:54;;;;;;;;;22.00;19.25;;;;;;;;120169;1189;25021;-61
2023/04/09 02:41:23;;;;;;;;;20.75;18.50;;;;;;;;120206;1189;25148;-61
2023/04/09 02:43:51;;;;;;;;;16.67;14.33;;;;;;;;120092;1189;25530;-61
2023/04/09 02:46:20;;;;;;;;;18.50;17.00;;;;;;;;120177;1180;25314;-61
2023/04/09 02:48:48;;;;;;;;;16.33;15.33;;;;;;;;120185;1182;24885;-61
2023/04/09 02:51:16;;;;;;;;;24.67;19.33;;;;;;;;120119;1186;25372;-61
2023/04/09 02:53:45;;;;;;;;;23.50;19.50;;;;;;;;120223;1189;25614;-61
2023/04/09 02:56:13;;;;;;;;;23.50;20.00;;;;;;;;120187;1180;26281;-62
2023/04/09 02:58:41;;;;;;;;;22.50;21.50;;;;;;;;120126;1186;25116;-61
2023/04/09 03:01:09;;;;;;;;;23.00;17.00;;;;;;;;120057;1189;24745;-61
2023/04/09 03:03:40;;;;;;;;;18.50;17.25;;;;;;;;120111;1189;24747;-61
2023/04/09 03:06:09;;;;;;;;;20.67;20.00;;;;;;;;120086;1189;24792;-63
2023/04/09 03:08:37;;;;;;;;;21.75;16.00;;;;;;;;119928;1191;25421;-61
2023/04/09 03:11:06;;;;;;;;;20.75;17.00;;;;;;;;120205;1189;25885;-61
2023/04/09 03:13:34;;;;;;;;;17.25;16.25;;;;;;;;120087;1182;25409;-61
2023/04/09 03:16:02;;;;;;;;;23.25;20.50;;;;;;;;120071;1189;24892;-61
2023/04/09 03:18:30;;;;;;;;;21.00;18.33;;;;;;;;120102;1190;25107;-61
2023/04/09 03:20:59;;;;;;;;;15.00;13.75;;;;;;;;120081;1182;25160;-61
2023/04/09 03:23:29;;;;;;;;;15.00;13.00;;;;;;;;119946;1182;25661;-61
2023/04/09 03:26:05;;;;;;;;;20.00;16.25;;;;;;;;120148;1188;25337;-61
2023/04/09 03:28:33;;;;;;;;;17.50;16.25;;;;;;;;120176;1189;25635;-61
2023/04/09 03:31:01;;;;;;;;;12.75;12.75;;;;;;;;120130;1189;25366;-61
2023/04/09 03:33:29;;;;;;;;;16.00;14.33;;;;;;;;120191;1188;25520;-61
2023/04/09 03:35:58;;;;;;;;;19.33;18.67;;;;;;;;120124;1189;25251;-61
2023/04/09 03:38:26;;;;;;;;;19.50;19.25;;;;;;;;120229;1180;25288;-61
2023/04/09 03:40:55;;;;;;;;;16.33;15.33;;;;;;;;120175;1187;25480;-61
2023/04/09 03:43:23;;;;;;;;;27.00;19.33;;;;;;;;120084;1189;25508;-61
2023/04/09 03:45:51;;;;;;;;;19.25;17.75;;;;;;;;120169;1177;26446;-61
2023/04/09 03:48:19;;;;;;;;;17.50;13.00;;;;;;;;120207;1189;24699;-62
2023/04/09 03:50:48;;;;;;;;;16.00;15.50;;;;;;;;120174;1189;25230;-61
2023/04/09 03:53:16;;;;;;;;;14.67;14.33;;;;;;;;120170;1180;25403;-61
2023/04/09 03:55:44;;;;;;;;;18.33;15.33;;;;;;;;120158;1181;25585;-61
2023/04/09 03:58:12;;;;;;;;;15.00;14.00;;;;;;;;120117;1189;25249;-61
2023/04/09 04:00:42;;;;;;;;;24.33;17.00;;;;;;;;120188;1189;25361;-61
2023/04/09 04:03:10;;;;;;;;;17.75;13.50;;;;;;;;120102;1180;25213;-61
2023/04/09 04:05:39;;;;;;;;;13.00;12.50;;;;;;;;120078;1182;24909;-61
2023/04/09 04:08:07;;;;;;;;;20.00;16.00;;;;;;;;120096;1190;25295;-61
2023/04/09 04:10:36;;;;;;;;;16.00;15.00;;;;;;;;120122;1189;25539;-61
2023/04/09 04:13:05;;;;;;;;;12.25;12.00;;;;;;;;120073;1190;25000;-61
2023/04/09 04:15:40;;;;;;;;;14.75;13.50;;;;;;;;119898;1189;25037;-61
2023/04/09 04:18:08;;;;;;;;;19.25;18.00;;;;;;;;119922;1183;24831;-61
2023/04/09 04:20:37;;;;;;;;;16.33;14.33;;;;;;;;120088;1190;25663;-61
2023/04/09 04:23:06;;;;;;;;;16.00;13.00;;;;;;;;120183;1190;24954;-62
2023/04/09 04:25:34;;;;;;;;;16.00;15.33;;;;;;;;120090;1182;25680;-61
2023/04/09 04:28:02;;;;;;;;;18.00;16.33;;;;;;;;120083;1182;24846;-61
2023/04/09 04:30:30;;;;;;;;;16.50;13.00;;;;;;;;120039;1187;25470;-62
2023/04/09 04:32:58;;;;;;;;;17.00;15.00;;;;;;;;120079;1190;25455;-61
2023/04/09 04:35:27;;;;;;;;;16.00;16.00;;;;;;;;120128;1189;25207;-62
2023/04/09 04:37:55;;;;;;;;;20.00;16.50;;;;;;;;120222;1185;25547;-61
2023/04/09 04:40:24;;;;;;;;;16.33;15.00;;;;;;;;120180;1189;25271;-61
2023/04/09 04:42:52;;;;;;;;;14.00;14.00;;;;;;;;120160;1188;25623;-61
2023/04/09 04:45:20;;;;;;;;;18.25;18.00;;;;;;;;120127;1189;24883;-61
2023/04/09 04:47:48;;;;;;;;;19.75;16.75;;;;;;;;119960;1187;24885;-61
2023/04/09 04:50:17;;;;;;;;;20.50;17.75;;;;;;;;120154;1190;25052;-61
2023/04/09 04:52:45;;;;;;;;;18.00;16.00;;;;;;;;120155;1189;24915;-61
2023/04/09 04:55:13;;;;;;;;;17.75;16.25;;;;;;;;120187;1189;24872;-61
2023/04/09 04:57:41;;;;;;;;;14.33;12.67;;;;;;;;120223;1189;24905;-62
2023/04/09 05:00:10;;;;;;;;;18.25;15.50;;;;;;;;120157;1181;25374;-61
2023/04/09 05:02:38;;;;;;;;;18.33;15.33;;;;;;;;119870;1191;24748;-61
2023/04/09 05:05:07;;;;;;;;;20.33;18.33;;;;;;;;120075;1177;25018;-61
2023/04/09 05:07:35;;;;;;;;;21.00;17.75;;;;;;;;120197;1180;24932;-61
2023/04/09 05:10:04;;;;;;;;;18.00;18.00;;;;;;;;120142;1189;24865;-61
2023/04/09 05:12:32;;;;;;;;;19.00;16.25;;;;;;;;120111;1182;25719;-61
2023/04/09 05:15:00;;;;;;;;;17.00;15.00;;;;;;;;120069;1182;25559;-61
2023/04/09 05:17:29;;;;;;;;;16.50;14.25;;;;;;;;120128;1187;25136;-61
2023/04/09 05:19:57;;;;;;;;;17.67;16.33;;;;;;;;120091;1182;26472;-61
2023/04/09 05:22:26;;;;;;;;;20.75;17.75;;;;;;;;119892;1183;25083;-61
2023/04/09 05:24:54;;;;;;;;;16.67;16.33;;;;;;;;119919;1190;25423;-61
2023/04/09 05:27:24;;;;;;;;;19.50;18.00;;;;;;;;119921;1183;25050;-63
2023/04/09 05:29:53;;;;;;;;;18.25;17.25;;;;;;;;120140;1188;24704;-63
2023/04/09 05:32:21;;;;;;;;;19.75;17.75;;;;;;;;120185;1189;25346;-63
2023/04/09 05:34:49;;;;;;;;;15.67;15.00;;;;;;;;120222;1183;25495;-63
2023/04/09 05:37:18;;;;;;;;;18.25;17.00;;;;;;;;120103;1187;25179;-64
2023/04/09 05:39:46;;;;;;;;;22.33;19.67;;;;;;;;120095;1183;25677;-63
2023/04/09 05:42:14;;;;;;;;;17.00;14.75;;;;;;;;120151;1180;25305;-63
2023/04/09 05:44:42;;;;;;;;;17.50;16.50;;;;;;;;120110;1180;25387;-63
2023/04/09 05:47:10;;;;;;;;;22.75;20.50;;;;;;;;120082;1186;25300;-63
2023/04/09 05:49:39;;;;;;;;;21.00;20.00;;;;;;;;119888;1189;25618;-63
2023/04/09 05:52:07;;;;;;;;;26.50;21.50;;;;;;;;120219;1189;24976;-63
2023/04/09 05:54:35;;;;;;;;;19.50;19.00;;;;;;;;120059;1189;25060;-63
2023/04/09 05:57:03;;;;;;;;;22.33;19.00;;;;;;;;119940;1182;25228;-62
2023/04/09 05:59:32;;;;;;;;;21.50;19.00;;;;;;;;119910;1190;24724;-63
2023/04/09 06:02:00;;;;;;;;;18.75;17.50;;;;;;;;119890;1190;24852;-63
2023/04/09 06:04:29;;;;;;;;;20.75;19.00;;;;;;;;119899;1191;24969;-63
2023/04/09 06:06:59;;;;;;;;;20.67;18.67;;;;;;;;120013;1190;24780;-63
2023/04/09 06:09:27;;;;;;;;;23.50;19.75;;;;;;;;120149;1182;25361;-63
2023/04/09 06:11:56;;;;;;;;;27.50;24.00;;;;;;;;120111;1182;25033;-63
2023/04/09 06:14:24;;;;;;;;;26.75;24.25;;;;;;;;120095;1190;24955;-63
2023/04/09 06:16:53;;;;;;;;;21.25;18.50;;;;;;;;119918;1190;25151;-63
2023/04/09 06:19:22;;;;;;;;;21.25;19.25;;;;;;;;120088;1190;25161;-63
2023/04/09 06:21:50;;;;;;;;;23.00;22.00;;;;;;;;119932;1182;24960;-64
2023/04/09 06:24:19;;;;;;;;;22.00;17.00;;;;;;;;120200;1180;25823;-63
2023/04/09 06:26:47;;;;;;;;;21.67;18.00;;;;;;;;120208;1189;24764;-63
2023/04/09 06:29:15;;;;;;;;;26.00;22.75;;;;;;;;119867;1183;25147;-63
2023/04/09 06:31:44;;;;;;;;;30.00;25.50;;;;;;;;120000;1190;25342;-62
2023/04/09 06:34:12;;;;;;;;;26.67;22.33;;;;;;;;120091;1190;25386;-63
2023/04/09 06:36:40;;;;;;;;;30.25;24.75;;;;;;;;120104;1190;24958;-63
2023/04/09 06:39:08;;;;;;;;;29.00;24.00;;;;;;;;120069;1182;25531;-63
2023/04/09 06:41:36;;;;;;;;;26.50;26.00;;;;;;;;120189;1189;25510;-63
2023/04/09 06:44:05;;;;;;;;;23.25;21.00;;;;;;;;119970;1189;25494;-63
2023/04/09 06:46:33;;;;;;;;;27.33;23.67;;;;;;;;120177;1189;24808;-63
2023/04/09 06:49:01;;;;;;;;;24.50;23.25;;;;;;;;120041;1183;24946;-66
2023/04/09 06:51:30;;;;;;;;;23.00;17.67;;;;;;;;119982;1190;24851;-64
2023/04/09 06:53:58;;;;;;;;;22.75;20.50;;;;;;;;120120;1180;25010;-61
2023/04/09 06:56:27;;;;;;;;;21.00;19.00;;;;;;;;120071;1190;25318;-65
2023/04/09 06:58:55;;;;;;;;;20.33;19.33;;;;;;;;119895;1190;25156;-66
2023/04/09 07:01:24;;;;;;;;;21.50;19.75;;;;;;;;120119;1186;25409;-64
2023/04/09 07:03:52;;;;;;;;;18.00;13.75;;;;;;;;119924;1183;25746;-65
2023/04/09 07:06:21;;;;;;;;;21.25;18.25;;;;;;;;120123;1185;25755;-66
2023/04/09 07:08:49;;;;;;;;;17.75;15.50;;;;;;;;120116;1186;25291;-66
2023/04/09 07:11:18;;;;;;;;;21.50;19.00;;;;;;;;120093;1189;25302;-66
2023/04/09 07:13:46;;;;;;;;;21.50;19.75;;;;;;;;119865;1189;25249;-63
2023/04/09 07:16:15;;;;;;;;;27.50;21.50;;;;;;;;120093;1187;25214;-66
2023/04/09 07:18:43;;;;;;;;;14.00;14.00;;;;;;;;119897;1190;25127;-64
2023/04/09 07:21:11;;;;;;;;;27.00;22.50;;;;;;;;120117;1177;25453;-64
2023/04/09 07:23:40;;;;;;;;;29.00;22.33;;;;;;;;119939;1182;25044;-65
2023/04/09 07:26:09;;;;;;;;;24.50;23.00;;;;;;;;120092;1186;25561;-63
2023/04/09 07:28:37;;;;;;;;;26.00;21.33;;;;;;;;119958;1186;25041;-63
2023/04/09 07:31:06;;;;;;;;;27.67;22.67;;;;;;;;120088;1182;25613;-65
2023/04/09 07:33:34;;;;;;;;;30.67;27.00;;;;;;;;119955;1183;25349;-64
2023/04/09 07:36:03;;;;;;;;;26.25;23.25;;;;;;;;120095;1186;25022;-63
2023/04/09 07:38:32;;;;;;;;;22.00;20.67;;;;;;;;119946;1187;25648;-64
2023/04/09 07:41:00;;;;;;;;;25.50;22.00;;;;;;;;120099;1187;25031;-63
2023/04/09 07:43:28;;;;;;;;;23.33;21.00;;;;;;;;120058;1177;24679;-63
2023/04/09 07:45:56;;;;;;;;;30.00;24.50;;;;;;;;119907;1182;25510;-64
2023/04/09 07:48:26;;;;;;;;;22.33;21.67;;;;;;;;120026;1177;24743;-61
2023/04/09 07:50:55;;;;;;;;;30.75;23.00;;;;;;;;120081;1186;25150;-61
2023/04/09 07:53:23;;;;;;;;;27.00;22.75;;;;;;;;120085;1182;24718;-65
2023/04/09 07:55:52;;;;;;;;;28.50;23.00;;;;;;;;120070;1182;25664;-66
2023/04/09 07:58:20;;;;;;;;;21.00;18.00;;;;;;;;120060;1186;24736;-65
2023/04/09 08:00:48;;;;;;;;;27.00;24.75;;;;;;;;120073;1186;25034;-64
2023/04/09 08:03:17;;;;;;;;;24.67;21.67;;;;;;;;120138;1186;25392;-66
2023/04/09 08:05:46;;;;;;;;;27.50;23.50;;;;;;;;120087;1190;25165;-66
2023/04/09 08:08:14;;;;;;;;;27.00;23.50;;;;;;;;120105;1186;25053;-66
2023/04/09 08:10:42;;;;;;;;;31.00;24.25;;;;;;;;120096;1186;24856;-65
2023/04/09 08:13:11;;;;;;;;;29.75;25.00;;;;;;;;120105;1186;25375;-65
2023/04/09 08:15:39;;;;;;;;;28.25;22.25;;;;;;;;120064;1177;24913;-66
2023/04/09 08:18:08;;;;;;;;;27.00;25.00;;;;;;;;119938;1189;25651;-65
2023/04/09 08:20:36;;;;;;;;;24.50;22.50;;;;;;;;120044;1189;25324;-63
2023/04/09 08:23:04;;;;;;;;;26.50;22.25;;;;;;;;120170;1183;25497;-64
2023/04/09 08:25:33;;;;;;;;;28.00;25.00;;;;;;;;120107;1186;25284;-64
2023/04/09 08:28:01;;;;;;;;;24.00;21.25;;;;;;;;120078;1177;25441;-64
2023/04/09 08:30:29;;;;;;;;;25.00;22.00;;;;;;;;120072;1187;25031;-66
2023/04/09 08:32:57;;;;;;;;;19.00;18.00;;;;;;;;120056;1182;24998;-66
2023/04/09 08:35:27;;;;;;;;;22.67;20.33;;;;;;;;120074;1186;25500;-67
2023/04/09 08:37:56;;;;;;;;;21.50;19.75;;;;;;;;120093;1186;25344;-67
2023/04/09 08:40:24;;;;;;;;;27.00;24.00;;;;;;;;119905;1187;25067;-65
2023/04/09 08:42:57;;;;;;;;;21.50;18.25;;;;;;;;120065;1183;25397;-67
2023/04/09 08:45:25;;;;;;;;;22.33;21.00;;;;;;;;119904;1190;24791;-62
2023/04/09 08:47:53;;;;;;;;;21.50;18.50;;;;;;;;120110;1186;25491;-62
2023/04/09 08:50:22;;;;;;;;;22.75;22.00;;;;;;;;120074;1181;24825;-63
2023/04/09 08:52:50;;;;;;;;;22.00;17.00;;;;;;;;120079;1189;24866;-64
2023/04/09 08:55:18;;;;;;;;;22.75;21.25;;;;;;;;120079;1190;24937;-62
2023/04/09 08:57:47;;;;;;;;;25.00;21.00;;;;;;;;119934;1182;25260;-69
2023/04/09 09:00:15;;;;;;;;;20.00;18.33;;;;;;;;120070;1190;25586;-67
2023/04/09 09:03:06;;;;;;;;;20.75;19.00;;;;;;;;120082;1186;25693;-68
2023/04/09 09:05:39;;;;;;;;;22.50;20.25;;;;;;;;119931;1187;24928;-66
2023/04/09 09:08:21;;;;;;;;;22.75;20.75;;;;;;;;120124;1177;25264;-67
2023/04/09 09:10:49;;;;;;;;;21.75;20.25;;;;;;;;119892;1190;25141;-66
2023/04/09 09:13:23;;;;;;;;;18.00;15.00;;;;;;;;120109;1181;24846;-66
2023/04/09 09:15:55;;;;;;;;;22.33;20.33;;;;;;;;120080;1186;25051;-65
2023/04/09 09:18:43;;;;;;;;;21.33;17.33;;;;;;;;120079;1185;25797;-64
2023/04/09 09:21:13;;;;;;;;;22.00;20.00;;;;;;;;120079;1182;25020;-66
2023/04/09 09:23:41;;;;;;;;;22.50;16.00;;;;;;;;119910;1190;24723;-66
2023/04/09 09:26:30;;;;;;;;;16.75;15.75;;;;;;;;119876;1189;25268;-71
2023/04/09 09:29:04;;;;;;;;;18.50;17.75;;;;;;;;120209;1189;25529;-69
2023/04/09 09:32:02;;;;;;;;;18.25;17.25;;;;;;;;120189;1189;25084;-68
2023/04/09 09:34:30;;;;;;;;;14.00;14.00;;;;;;;;119959;1190;25070;-64
2023/04/09 09:36:58;;;;;;;;;19.75;16.50;;;;;;;;120146;1189;25332;-67
2023/04/09 09:39:42;;;;;;;;;22.00;20.67;;;;;;;;119953;1187;25008;-63
2023/04/09 09:42:10;;;;;;;;;22.75;19.75;;;;;;;;120036;1182;25555;-66
2023/04/09 09:44:39;;;;;;;;;18.33;15.67;;;;;;;;120144;1189;25044;-62
2023/04/09 09:47:08;;;;;;;;;19.33;17.33;;;;;;;;119884;1179;25513;-65
2023/04/09 09:49:36;;;;;;;;;24.75;20.00;;;;;;;;119883;1191;25454;-66
2023/04/09 09:52:09;;;;;;;;;21.75;20.50;;;;;;;;119907;1191;25545;-65
2023/04/09 09:54:42;;;;;;;;;27.67;23.00;;;;;;;;119741;1183;24778;-65
2023/04/09 09:57:13;;;;;;;;;26.67;23.00;;;;;;;;119709;1190;25199;-67
2023/04/09 09:59:53;;;;;;;;;20.00;16.00;;;;;;;;119862;1191;25035;-75
2023/04/09 10:02:23;;;;;;;;;21.33;20.33;;;;;;;;119902;1191;25485;-66
2023/04/09 10:04:52;;;;;;;;;25.33;22.33;;;;;;;;119862;1187;25606;-66
2023/04/09 10:07:21;;;;;;;;;26.67;23.00;;;;;;;;120005;1190;25562;-66
2023/04/09 10:09:51;;;;;;;;;24.67;24.00;;;;;;;;119902;1190;24690;-64
2023/04/09 10:12:22;;;;;;;;;22.00;22.00;;;;;;;;119915;1190;25097;-63
2023/04/09 10:14:54;;;;;;;;;25.33;21.67;;;;;;;;119939;1189;25582;-63
2023/04/09 10:17:22;;;;;;;;;24.67;22.33;;;;;;;;120054;1182;25180;-65
2023/04/09 10:20:13;;;;;;;;;26.00;23.00;;;;;;;;119864;1191;25364;-65
2023/04/09 10:22:46;;;;;;;;;22.25;19.75;;;;;;;;119916;1190;24745;-70
2023/04/09 10:25:15;;;;;;;;;24.75;22.50;;;;;;;;119983;1183;25318;-63
2023/04/09 10:27:45;;;;;;;;;23.67;21.33;;;;;;;;119929;1190;25190;-66
2023/04/09 10:30:35;;;;;;;;;22.75;20.00;;;;;;;;120208;1180;24899;-67
2023/04/09 10:33:25;;;;;;;;;20.33;18.33;;;;;;;;120201;1189;25613;-70
2023/04/09 10:35:57;;;;;;;;;19.50;19.00;;;;;;;;120192;1189;25463;-73
2023/04/09 10:38:51;;;;;;;;;21.00;21.00;;;;;;;;120019;1190;25598;-73
2023/04/09 10:41:30;;;;;;;;;19.75;18.75;;;;;;;;120127;1180;24917;-73
2023/04/09 10:43:59;;;;;;;;;19.50;19.00;;;;;;;;119882;1190;25357;-74
2023/04/09 10:46:34;;;;;;;;;22.25;19.00;;;;;;;;120101;1183;25681;-68
2023/04/09 10:49:15;;;;;;;;;22.67;22.00;;;;;;;;119986;1182;24839;-75
2023/04/09 10:52:01;;;;;;;;;17.50;16.50;;;;;;;;120208;1189;24853;-76
2023/04/09 10:54:33;;;;;;;;;22.00;21.00;;;;;;;;120188;1189;25632;-79
2023/04/09 10:57:10;;;;;;;;;20.33;17.00;;;;;;;;120219;1189;25454;-75
2023/04/09 10:59:46;;;;;;;;;24.75;21.50;;;;;;;;120093;1187;25175;-75
2023/04/09 11:02:45;;;;;;;;;30.50;25.50;;;;;;;;120168;1177;25768;-68
2023/04/09 11:05:16;;;;;;;;;18.75;18.00;;;;;;;;120186;1189;25303;-70
2023/04/09 11:07:51;;;;;;;;;30.00;22.25;;;;;;;;120169;1189;25209;-70
2023/04/09 11:10:20;;;;;;;;;26.33;17.33;;;;;;;;119950;1189;25576;-70
2023/04/09 11:12:49;;;;;;;;;23.67;22.00;;;;;;;;120080;1189;25439;-69
2023/04/09 11:15:18;;;;;;;;;20.75;18.00;;;;;;;;120210;1182;25147;-69
2023/04/09 11:17:47;;;;;;;;;27.00;23.00;;;;;;;;120232;1189;24901;-70
2023/04/09 11:20:19;;;;;;;;;18.00;17.25;;;;;;;;119967;1189;25249;-69
2023/04/09 11:22:49;;;;;;;;;20.00;19.75;;;;;;;;120215;1182;25170;-70
2023/04/09 11:25:20;;;;;;;;;25.00;23.25;;;;;;;;120195;1189;25108;-69
2023/04/09 11:27:49;;;;;;;;;28.00;23.00;;;;;;;;120217;1189;25445;-69
2023/04/09 11:30:18;;;;;;;;;21.50;18.50;;;;;;;;120208;1189;24710;-69
2023/04/09 11:32:47;;;;;;;;;21.50;19.00;;;;;;;;120198;1180;25536;-69
2023/04/09 11:35:18;;;;;;;;;24.00;21.00;;;;;;;;120179;1189;25454;-69
2023/04/09 11:37:47;;;;;;;;;21.75;19.25;;;;;;;;120190;1189;25193;-69
2023/04/09 11:40:20;;;;;;;;;26.00;21.00;;;;;;;;120198;1189;25138;-69
2023/04/09 11:42:51;;;;;;;;;26.33;20.67;;;;;;;;119991;1183;26449;-70
2023/04/09 11:45:23;;;;;;;;;30.50;21.75;;;;;;;;120186;1189;24754;-69
2023/04/09 11:47:52;;;;;;;;;26.75;19.75;;;;;;;;119980;1189;25300;-70
2023/04/09 11:50:21;;;;;;;;;32.67;25.67;;;;;;;;120212;1189;25534;-69
2023/04/09 11:52:49;;;;;;;;;32.50;23.50;;;;;;;;120191;1182;25022;-69
2023/04/09 11:55:26;;;;;;;;;26.67;21.67;;;;;;;;120196;1189;25500;-69
2023/04/09 11:58:01;;;;;;;;;27.50;21.75;;;;;;;;120204;1182;25497;-70
2023/04/09 12:00:31;;;;;;;;;22.00;20.25;;;;;;;;120189;1189;25455;-69
2023/04/09 12:03:03;;;;;;;;;24.75;23.75;;;;;;;;120215;1189;24829;-69
2023/04/09 12:05:33;;;;;;;;;21.75;19.50;;;;;;;;119979;1183;25136;-70
2023/04/09 12:08:06;;;;;;;;;24.75;23.00;;;;;;;;120201;1182;25583;-70
2023/04/09 12:10:36;;;;;;;;;22.50;21.00;;;;;;;;119965;1182;24851;-69
2023/04/09 12:13:06;;;;;;;;;27.00;22.75;;;;;;;;120195;1189;25535;-69
2023/04/09 12:15:37;;;;;;;;;21.00;18.00;;;;;;;;120357;1177;25229;-70
2023/04/09 12:18:12;;;;;;;;;24.50;21.50;;;;;;;;120208;1187;25053;-70
2023/04/09 12:20:46;;;;;;;;;25.50;24.00;;;;;;;;119959;1189;25115;-69
2023/04/09 12:23:15;;;;;;;;;21.00;20.00;;;;;;;;120223;1189;25424;-69
2023/04/09 12:25:44;;;;;;;;;32.25;24.00;;;;;;;;120205;1189;25588;-69
2023/04/09 12:28:15;;;;;;;;;24.50;21.25;;;;;;;;120213;1189;25585;-69
2023/04/09 12:30:43;;;;;;;;;25.00;22.75;;;;;;;;120231;1189;25357;-69
2023/04/09 12:33:11;;;;;;;;;21.00;18.00;;;;;;;;120197;1186;25215;-69
2023/04/09 12:35:40;;;;;;;;;27.00;22.00;;;;;;;;120190;1189;25040;-69
2023/04/09 12:38:08;;;;;;;;;26.25;21.50;;;;;;;;120239;1180;24686;-69
2023/04/09 12:40:38;;;;;;;;;20.75;19.00;;;;;;;;120246;1180;26329;-69
2023/04/09 12:43:06;;;;;;;;;27.00;22.00;;;;;;;;120188;1189;25423;-70
2023/04/09 12:45:34;;;;;;;;;22.67;21.67;;;;;;;;120213;1187;25404;-70
2023/04/09 12:48:02;;;;;;;;;21.50;18.75;;;;;;;;120218;1189;25399;-70
2023/04/09 12:50:32;;;;;;;;;22.67;19.67;;;;;;;;120243;1180;25309;-70
2023/04/09 12:53:00;;;;;;;;;23.00;19.50;;;;;;;;120208;1189;25558;-70
2023/04/09 12:55:28;;;;;;;;;24.33;20.00;;;;;;;;120251;1180;25019;-70
2023/04/09 12:57:57;;;;;;;;;22.75;19.75;;;;;;;;120228;1189;25024;-70
2023/04/09 13:00:29;;;;;;;;;21.00;17.75;;;;;;;;120199;1189;25388;-70
2023/04/09 13:02:58;;;;;;;;;20.00;15.00;;;;;;;;120226;1189;24729;-69
2023/04/09 13:05:26;;;;;;;;;29.25;22.25;;;;;;;;120225;1180;24928;-70
2023/04/09 13:07:54;;;;;;;;;22.00;18.00;;;;;;;;120218;1189;25481;-70
2023/04/09 13:10:22;;;;;;;;;23.00;19.50;;;;;;;;120212;1188;24741;-69
2023/04/09 13:12:51;;;;;;;;;19.75;17.50;;;;;;;;120219;1189;24812;-70
2023/04/09 13:15:19;;;;;;;;;25.25;22.50;;;;;;;;120226;1180;25222;-69
2023/04/09 13:17:47;;;;;;;;;20.50;15.50;;;;;;;;120222;1189;25420;-69
2023/04/09 13:20:16;;;;;;;;;22.50;22.50;;;;;;;;120222;1189;24768;-70
2023/04/09 13:22:47;;;;;;;;;27.00;21.50;;;;;;;;120234;1180;25224;-69
2023/04/09 13:25:16;;;;;;;;;21.50;20.00;;;;;;;;120255;1189;25175;-69
2023/04/09 13:27:44;;;;;;;;;22.75;20.50;;;;;;;;119967;1189;25267;-69
2023/04/09 13:30:13;;;;;;;;;23.50;21.25;;;;;;;;120207;1186;25097;-69
2023/04/09 13:32:42;;;;;;;;;27.50;20.00;;;;;;;;120231;1189;24768;-69
2023/04/09 13:35:10;;;;;;;;;26.00;21.33;;;;;;;;120213;1182;24722;-69
2023/04/09 13:37:39;;;;;;;;;25.00;18.00;;;;;;;;120217;1189;24842;-69
2023/04/09 13:40:08;;;;;;;;;19.67;16.67;;;;;;;;120194;1189;25368;-69
2023/04/09 13:42:36;;;;;;;;;21.50;20.00;;;;;;;;120213;1189;25684;-70
2023/04/09 13:45:05;;;;;;;;;26.00;22.33;;;;;;;;120222;1180;25189;-69
2023/04/09 13:47:33;;;;;;;;;20.25;20.00;;;;;;;;120219;1180;25435;-70
2023/04/09 13:50:02;;;;;;;;;22.75;17.75;;;;;;;;120244;1189;25631;-69
2023/04/09 13:52:31;;;;;;;;;21.50;21.50;;;;;;;;120223;1189;25004;-69
2023/04/09 13:54:59;;;;;;;;;24.00;19.25;;;;;;;;120211;1189;25613;-69
2023/04/09 13:57:27;;;;;;;;;20.67;18.33;;;;;;;;120242;1189;24973;-70
2023/04/09 13:59:55;;;;;;;;;21.67;19.33;;;;;;;;120226;1189;24854;-70
2023/04/09 14:02:24;;;;;;;;;20.50;19.00;;;;;;;;120229;1189;25092;-69
2023/04/09 14:04:52;;;;;;;;;24.50;19.75;;;;;;;;120206;1186;25506;-69
2023/04/09 14:07:20;;;;;;;;;15.75;12.00;;;;;;;;120229;1189;25249;-69
2023/04/09 14:09:50;;;;;;;;;18.75;18.00;;;;;;;;120215;1189;25263;-69
2023/04/09 14:12:18;;;;;;;;;23.50;18.25;;;;;;;;120237;1189;25467;-69
2023/04/09 14:14:46;;;;;;;;;22.00;20.00;;;;;;;;120238;1189;24852;-69
2023/04/09 14:17:14;;;;;;;;;20.67;18.00;;;;;;;;120249;1180;25584;-69
2023/04/09 14:19:43;;;;;;;;;19.00;17.25;;;;;;;;120217;1189;25569;-70
2023/04/09 14:22:11;;;;;;;;;24.00;23.00;;;;;;;;120217;1189;25800;-69